METAR Data
IDs: Format: Raw Decoded Include TAF

Data at: 1349 UTC 14 Dec 2019

PASN 141253Z AUTO 06020G27KT 10SM FEW022 OVC037 03/M01 A2901 RMK AO2 PK WND 05030/1215 SLP823 T00331006 TSNO
PASN 141153Z AUTO 06018G27KT 10SM OVC039 03/M01 A2902 RMK AO2 PK WND 06029/1111 SLP827 T00331006 10033 20022 56010 TSNO
PASN 141053Z AUTO 07020G27KT 10SM FEW022 OVC041 03/M01 A2903 RMK AO2 PK WND 07029/1042 SLP830 T00331006 TSNO
PASN 140953Z AUTO 07018G26KT 10SM FEW021 SCT035 BKN080 03/M01 A2904 RMK AO2 PK WND 07028/0920 SLP834 T00331006 TSNO
PASN 140853Z AUTO 07016G25KT 10SM FEW027 BKN065 OVC080 03/M01 A2905 RMK AO2 PK WND 09030/0806 SLP837 T00331011 400331028 56015 TSNO
PASN 140753Z AUTO 08022KT 10SM FEW023 SCT033 OVC080 03/M01 A2906 RMK AO2 PK WND 09028/0743 SLP843 T00331006 TSNO
PASN 140737Z AUTO 08019G26KT 10SM SCT024 BKN032 BKN090 03/M01 A2907 RMK AO2 PK WND 09026/0728 T00331006 TSNO
PASN 140719Z AUTO 07015KT 10SM SCT022 BKN028 03/M01 A2907 RMK AO2 T00281006 TSNO
PASN 140653Z AUTO 08016KT 10SM FEW032 BKN045 BKN055 03/M01 A2907 RMK AO2 PK WND 08026/0603 SLP846 T00281006 TSNO
PASN 140620Z AUTO 08016KT 10SM SCT024 BKN035 OVC055 02/M01 A2909 RMK AO2 PK WND 08026/0603 T00221006 TSNO
PASN 140613Z AUTO 08017G24KT 10SM SCT024 BKN028 OVC055 03/M01 A2909 RMK AO2 PK WND 08026/0603 T00281006 TSNO
PASN 140553Z AUTO 09017KT 10SM FEW026 OVC035 03/M01 A2909 RMK AO2 SLP852 T00281011 10033 20017 56016 TSNO
PASN 140453Z AUTO 08016KT 10SM FEW034 BKN100 03/M02 A2911 RMK AO2 SLP858 T00281022 TSNO
PASN 140353Z AUTO 07013KT 10SM FEW022 BKN033 OVC046 02/M02 A2912 RMK AO2 SLP862 T00221017 TSNO
PASN 140253Z AUTO 08013KT 10SM BKN120 02/M03 A2914 RMK AO2 SLP868 T00171028 56018 TSNO
PASN 140153Z AUTO 10012KT 10SM FEW019 02/M03 A2915 RMK AO2 SLP873 T00171028 TSNO
PASN 140053Z AUTO 11013KT 10SM FEW100 02/M03 A2917 RMK AO2 SLP879 T00171028 TSNO
PASN 132353Z AUTO 12011KT 10SM FEW028 02/M03 A2919 RMK SLP887 T00171028 10017 21022 58017 TSNO VIA AUTODIAL
PASN 132253Z AUTO 12010KT 10SM CLR 02/M04 A2922 RMK AO2 SLP894 T00171044 TSNO
PASN 132153Z AUTO 15006KT 10SM CLR 00/M06 A2923 RMK AO2 SLP901 T00001056 TSNO
PASN 132053Z AUTO 16007KT 10SM CLR 00/M07 A2924 RMK AO2 SLP904 T00001067 50000 TSNO
PASN 131953Z AUTO 20008KT 10SM BKN042 01/M06 A2925 RMK SLP906 T00061056 TSNO VIA AUTODIAL
PASN 131853Z AUTO 21009KT 10SM BKN040 01/M05 A2925 RMK AO2 SLP906 T00061050 TSNO
PASN 131753Z AUTO 23005KT 10SM CLR M02/M07 A2924 RMK AO2 SLP903 T10221067 10006 21028 55006 TSNO
PASN 131553Z AUTO 24008KT 10SM SCT100 M02/M06 A2925 RMK AO2 SLP906 T10171056 TSNO $
PASN 131453Z AUTO 28004KT 10SM SCT032 OVC043 M01/M04 A2926 RMK SLP909 T10061044 58006 TSNO $ VIA AUTODIAL
PASN 131353Z AUTO 25008KT 10SM BKN046 M01/M06 A2927 RMK AO2 SLP912 T10061056 TSNO $
PASN 131253Z AUTO 24007KT 10SM OVC042 01/M04 A2928 RMK AO2 SLP915 T00061039 TSNO $
PASN 131153Z AUTO 27009KT 10SM FEW027 BKN070 OVC080 M01/M03 A2928 RMK AO2 SLP915 60005 70005 T10061033 10006 21028 58003 TSNO $
PASN 131053Z AUTO 28009KT 10SM FEW024 OVC065 00/M02 A2929 RMK AO2 SLP918 T00001022 TSNO $
PASN 130953Z AUTO 27012KT 10SM SCT050 BKN075 OVC085 M01/M02 A2929 RMK AO2 SNE0857B15E32 SLP918 P0000 T10061022 TSNO $
PASN 130908Z AUTO 28016G25KT 10SM FEW009 OVC043 00/M02 A2929 RMK AO2 SNE0857 P0000 T00001017 TSNO $
PASN 130901Z AUTO 28017KT 9SM FEW010 OVC039 00/M02 A2929 RMK AO2 SNE0857 P0000 T00001017 TSNO $
PASN 130853Z AUTO 28017KT 8SM -SN SCT010 OVC028 01/M02 A2929 RMK AO2 SLP918 P0003 60005 T00061017 400171083 55003 TSNO $
PASN 130843Z AUTO 28017KT 4SM -SN BR FEW012 OVC018 01/M01 A2929 RMK AO2 P0003 T00061011 TSNO $
PASN 130834Z AUTO 28014KT 3SM -SN BR FEW010 OVC014 01/M01 A2929 RMK AO2 P0003 T00061011 TSNO $
PASN 130815Z AUTO 27013KT 1 1/4SM -SN BR OVC010 01/M01 A2929 RMK AO2 P0002 T00061011 TSNO $
PASN 130757Z AUTO 28018KT 3/4SM -SN BR BKN014 OVC045 00/M02 A2928 RMK AO2 P0001 T00001017 TSNO $
PASN 130753Z AUTO 28014G20KT 1 1/4SM -SN BR BKN016 OVC045 00/M02 A2928 RMK AO2 SLP916 P0000 T00001017 TSNO $
PASN 130750Z AUTO 28012KT 1 3/4SM -SN BR BKN018 OVC045 00/M02 A2928 RMK AO2 P0000 TSNO $
PASN 130725Z AUTO 29010KT 8SM -SN SCT014 BKN033 OVC043 01/M02 A2928 RMK AO2 P0000 T00061017 TSNO $
PASN 130653Z AUTO 22007KT 7SM -SN FEW013 OVC018 01/M01 A2929 RMK AO2 SNB11 SLP919 P0002 T00061011 TSNO $
PASN 130645Z AUTO 22009KT 3SM -SN BR FEW011 OVC016 00/M02 A2929 RMK AO2 SNB11 P0002 T00001017 TSNO $
PASN 130632Z AUTO 23007KT 1 3/4SM -SN BR OVC017 M01/M02 A2929 RMK AO2 SNB11 P0001 T10061022 TSNO $
PASN 130624Z AUTO 23009KT 2SM -SN BR BKN017 OVC028 M01/M02 A2929 RMK AO2 SNB11 P0000 T10061022 TSNO $
PASN 130612Z AUTO 27009KT 6SM -SN BR SCT023 BKN028 BKN038 M01/M03 A2930 RMK AO2 SNB11 P0000 T10061028 TSNO $
PASN 130553Z AUTO 28004KT 10SM FEW026 M02/M04 A2929 RMK AO2 UPB05E17 SLP921 P0000 60000 T10171039 10011 21033 58007 TSNO $
PASN 130453Z AUTO 22007KT 10SM BKN037 M01/M03 A2930 RMK AO2 SNE06 SLP924 P0000 T10061028 TSNO $
PASN 130400Z AUTO 29006KT 6SM -SN BR FEW018 SCT024 OVC037 00/M02 A2932 RMK AO2 P0000 T00001022 TSNO $
PASN 130353Z AUTO 31008KT 5SM -SN BR SCT019 BKN025 OVC033 M01/M03 A2932 RMK AO2 SNB49 SLP928 P0000 T10061028 TSNO $
PASN 130351Z AUTO 30007KT 5SM -SN BR SCT019 BKN025 OVC036 M01/M03 A2932 RMK AO2 SNB49 P0000 TSNO $
PASN 130253Z AUTO 27008KT 10SM CLR M02/M05 A2932 RMK AO2 SLP929 T10221050 56006 TSNO $
PASN 130153Z AUTO 29006KT 10SM CLR M02/M06 A2932 RMK AO2 SLP930 T10171056 TSNO $